Crown Point, IN (46307)

12:46 AM CDT on September 02, 2015 (GMT -0500)
Stillwater | | Change Station
CLOSE
Current Station
Personal Weather Station
Location: Crown Point, IN
Elevation: 718 ft
Nearby Weather Stations
Active Advisory: Air Quality Alert

Elev 718 ft 41.39 °N, 87.34 °W | Updated 33 seconds ago

Clear
Clear
72.4 °F
Feels Like 70 °F
N
0.0
Wind Variable Wind from SW
Gusts 0.0 mph

Today
High -- | Low -- °F
--% Chance of Precip.
Yesterday
High -- | Low -- °F
Precip. -- in
6:16 AM 7:21 PM
Waning Gibbous, 83% visible
Pressure 30.05 in
Visibility 10.0 miles
Clouds Clear
Heat Index 70 °F
Dew Point 69 °F
Humidity 89%
Rainfall 0.00 in
Snow Depth Not available.
UV 0 out of 12
Pollen 11.00 out of 12
Air Quality Not available.
Flu Activity Not available.
METAR KIGQ 020535Z AUTO 22004KT 10SM CLR 22/20 A3005 RMK AO2 T02220200
Pressure 30.05 in
Visibility 10.0 miles
Clouds Clear
Heat Index 70 °F
Dew Point 69 °F
Humidity 89%
Rainfall 0.00 in
Snow Depth Not available.
UV 0 out of 12
Pollen 11.00 out of 12
Air Quality Not available.
Flu Activity Not available.
METAR KIGQ 020535Z AUTO 22004KT 10SM CLR 22/20 A3005 RMK AO2 T02220200

10-Day Weather Forecast

×

Almanac

Astronomy

Sep. 02, 2015 Rise Set
Actual Time
Civil Twilight
Nautical Twilight
Astronomical Twilight
Moon
Length of Visible Light
Length of Day
Tomorrow will be .
, % of the Moon is Illuminated

Today's Extremes

State Highs State Lows

Community

WunderPhotos

Upload Photos

1,851,709 photos uploaded!

WunderBlogs® & News

Nearby

Air Quality

  Air Quality AQ Index Pollutant
Not available.

Snow Depth

Station Depth Elevation

Earthquake Activity

City Distance Mag. Time & Date
Minimum magnitude displayed is 2.5.

Coastal Water Temperatures

Place Temperature

Stations

Nearby Weather Stations

Station Location Temp. Windchill Dew Point Humidity Wind Precip. Elev Updated Type
                   
Air Quality Alert
Statement as of 1:50 PM CDT on September 01, 2015

... Air quality alert in effect from 1 am Wednesday to 1 am CDT
Thursday...

An air quality action day has been forecast for lake and Porter
counties in Northwest Indiana and is in effect from 1 am
Wednesday to 1 am CDT Thursday.

Ozone levels are expected to be in the Orange or unhealthy for
sensitive groups range. For additional information... please visit
the idem smog watch web site at www.In.Gov/Apps/idem/smog/ or the
EPA airnow web site at www.Airnow.Gov and click on Indiana.


150 PM CDT Tue Sep 1 2015

... Air quality alert in effect from 1 am Wednesday to 1 am CDT
Thursday...

An air quality action day has been forecast for lake and Porter
counties in Northwest Indiana and is in effect from 1 am
Wednesday to 1 am CDT Thursday.

Ozone levels are expected to be in the Orange or unhealthy for
sensitive groups range. For additional information... please visit
the idem smog watch web site at www.In.Gov/Apps/idem/smog/ or the
EPA airnow web site at www.Airnow.Gov and click on Indiana.